sensor_id;sensor_type;location;lat;lon;timestamp;P1;durP1;ratioP1;P2;durP2;ratioP2
22425;SDS011;11380;50.822;15.790;2023-02-15T00:00:20;51.95;;;46.98;;
22425;SDS011;11380;50.822;15.790;2023-02-15T00:05:30;52.13;;;47.03;;
22425;SDS011;11380;50.822;15.790;2023-02-15T00:10:37;49.83;;;45.45;;
22425;SDS011;11380;50.822;15.790;2023-02-15T00:15:44;50.53;;;46.13;;
22425;SDS011;11380;50.822;15.790;2023-02-15T00:20:51;50.13;;;45.63;;
22425;SDS011;11380;50.822;15.790;2023-02-15T00:26:14;50.00;;;45.67;;
22425;SDS011;11380;50.822;15.790;2023-02-15T00:31:18;49.84;;;45.34;;
22425;SDS011;11380;50.822;15.790;2023-02-15T00:36:27;50.20;;;45.67;;
22425;SDS011;11380;50.822;15.790;2023-02-15T00:41:35;49.43;;;44.97;;
22425;SDS011;11380;50.822;15.790;2023-02-15T00:46:43;48.87;;;44.37;;
22425;SDS011;11380;50.822;15.790;2023-02-15T00:51:51;48.50;;;43.50;;
22425;SDS011;11380;50.822;15.790;2023-02-15T00:56:58;49.87;;;45.47;;
22425;SDS011;11380;50.822;15.790;2023-02-15T01:02:06;49.47;;;44.67;;
22425;SDS011;11380;50.822;15.790;2023-02-15T01:07:14;48.33;;;44.13;;
22425;SDS011;11380;50.822;15.790;2023-02-15T01:12:21;49.10;;;44.57;;
22425;SDS011;11380;50.822;15.790;2023-02-15T01:17:28;50.43;;;45.40;;
22425;SDS011;11380;50.822;15.790;2023-02-15T01:22:35;47.57;;;43.07;;
22425;SDS011;11380;50.822;15.790;2023-02-15T01:27:43;50.97;;;46.13;;
22425;SDS011;11380;50.822;15.790;2023-02-15T01:32:51;48.37;;;43.77;;
22425;SDS011;11380;50.822;15.790;2023-02-15T01:43:11;47.30;;;43.03;;
22425;SDS011;11380;50.822;15.790;2023-02-15T01:48:22;46.73;;;42.62;;
22425;SDS011;11380;50.822;15.790;2023-02-15T01:53:40;49.07;;;44.63;;
22425;SDS011;11380;50.822;15.790;2023-02-15T01:58:51;49.27;;;44.67;;
22425;SDS011;11380;50.822;15.790;2023-02-15T02:09:25;49.83;;;45.20;;
22425;SDS011;11380;50.822;15.790;2023-02-15T02:14:33;50.40;;;45.37;;
22425;SDS011;11380;50.822;15.790;2023-02-15T02:37:06;48.93;;;44.50;;
22425;SDS011;11380;50.822;15.790;2023-02-15T02:47:54;49.87;;;44.67;;
22425;SDS011;11380;50.822;15.790;2023-02-15T02:53:04;50.53;;;45.23;;
22425;SDS011;11380;50.822;15.790;2023-02-15T03:03:52;48.57;;;44.17;;
22425;SDS011;11380;50.822;15.790;2023-02-15T03:09:21;48.77;;;44.20;;
22425;SDS011;11380;50.822;15.790;2023-02-15T03:14:43;45.97;;;41.53;;
22425;SDS011;11380;50.822;15.790;2023-02-15T03:19:55;46.07;;;42.03;;
22425;SDS011;11380;50.822;15.790;2023-02-15T03:25:20;44.07;;;40.40;;
22425;SDS011;11380;50.822;15.790;2023-02-15T03:30:34;42.80;;;39.60;;
22425;SDS011;11380;50.822;15.790;2023-02-15T03:35:51;44.27;;;40.67;;
22425;SDS011;11380;50.822;15.790;2023-02-15T03:41:06;41.47;;;38.33;;
22425;SDS011;11380;50.822;15.790;2023-02-15T03:46:24;42.27;;;38.63;;
22425;SDS011;11380;50.822;15.790;2023-02-15T03:51:42;43.13;;;39.30;;
22425;SDS011;11380;50.822;15.790;2023-02-15T03:56:52;48.77;;;44.00;;
22425;SDS011;11380;50.822;15.790;2023-02-15T04:02:15;50.73;;;43.87;;
22425;SDS011;11380;50.822;15.790;2023-02-15T04:07:23;46.87;;;42.47;;
22425;SDS011;11380;50.822;15.790;2023-02-15T04:12:30;46.53;;;42.37;;
22425;SDS011;11380;50.822;15.790;2023-02-15T04:17:37;46.30;;;41.63;;
22425;SDS011;11380;50.822;15.790;2023-02-15T04:22:45;46.10;;;41.67;;
22425;SDS011;11380;50.822;15.790;2023-02-15T04:28:12;45.33;;;41.40;;
22425;SDS011;11380;50.822;15.790;2023-02-15T04:33:20;45.38;;;40.92;;
22425;SDS011;11380;50.822;15.790;2023-02-15T04:38:27;42.57;;;39.10;;
22425;SDS011;11380;50.822;15.790;2023-02-15T04:43:34;43.03;;;39.93;;
22425;SDS011;11380;50.822;15.790;2023-02-15T04:48:43;43.10;;;39.53;;
22425;SDS011;11380;50.822;15.790;2023-02-15T04:53:50;42.67;;;39.47;;
22425;SDS011;11380;50.822;15.790;2023-02-15T04:58:59;40.57;;;37.63;;
22425;SDS011;11380;50.822;15.790;2023-02-15T05:04:06;40.07;;;37.10;;
22425;SDS011;11380;50.822;15.790;2023-02-15T05:09:13;43.07;;;39.27;;
22425;SDS011;11380;50.822;15.790;2023-02-15T05:14:21;42.23;;;39.13;;
22425;SDS011;11380;50.822;15.790;2023-02-15T05:19:29;43.83;;;40.23;;
22425;SDS011;11380;50.822;15.790;2023-02-15T05:24:38;43.83;;;40.33;;
22425;SDS011;11380;50.822;15.790;2023-02-15T05:30:06;43.20;;;39.13;;
22425;SDS011;11380;50.822;15.790;2023-02-15T05:35:16;41.90;;;38.60;;
22425;SDS011;11380;50.822;15.790;2023-02-15T05:40:24;41.20;;;38.17;;
22425;SDS011;11380;50.822;15.790;2023-02-15T05:45:31;39.78;;;36.73;;
22425;SDS011;11380;50.822;15.790;2023-02-15T05:50:39;39.87;;;36.77;;
22425;SDS011;11380;50.822;15.790;2023-02-15T05:55:46;39.30;;;36.33;;
22425;SDS011;11380;50.822;15.790;2023-02-15T06:00:53;39.63;;;36.80;;
22425;SDS011;11380;50.822;15.790;2023-02-15T06:06:01;39.40;;;36.17;;
22425;SDS011;11380;50.822;15.790;2023-02-15T06:11:09;44.67;;;40.23;;
22425;SDS011;11380;50.822;15.790;2023-02-15T06:16:16;50.50;;;43.37;;
22425;SDS011;11380;50.822;15.790;2023-02-15T06:21:25;46.77;;;42.47;;
22425;SDS011;11380;50.822;15.790;2023-02-15T06:26:31;44.87;;;40.50;;
22425;SDS011;11380;50.822;15.790;2023-02-15T06:31:39;41.97;;;38.03;;
22425;SDS011;11380;50.822;15.790;2023-02-15T06:36:46;44.37;;;40.60;;
22425;SDS011;11380;50.822;15.790;2023-02-15T06:41:55;59.83;;;47.83;;
22425;SDS011;11380;50.822;15.790;2023-02-15T06:47:04;40.93;;;37.97;;
22425;SDS011;11380;50.822;15.790;2023-02-15T06:52:12;40.07;;;36.83;;
22425;SDS011;11380;50.822;15.790;2023-02-15T06:57:20;40.55;;;37.65;;
22425;SDS011;11380;50.822;15.790;2023-02-15T07:02:27;40.33;;;37.43;;
22425;SDS011;11380;50.822;15.790;2023-02-15T07:07:35;41.98;;;38.35;;
22425;SDS011;11380;50.822;15.790;2023-02-15T07:17:51;44.10;;;40.53;;
22425;SDS011;11380;50.822;15.790;2023-02-15T07:22:59;43.83;;;40.70;;
22425;SDS011;11380;50.822;15.790;2023-02-15T07:28:06;73.27;;;50.50;;
22425;SDS011;11380;50.822;15.790;2023-02-15T07:33:13;53.30;;;47.90;;
22425;SDS011;11380;50.822;15.790;2023-02-15T07:38:32;65.13;;;52.50;;
22425;SDS011;11380;50.822;15.790;2023-02-15T07:43:43;65.67;;;55.87;;
22425;SDS011;11380;50.822;15.790;2023-02-15T07:48:51;66.70;;;54.77;;
22425;SDS011;11380;50.822;15.790;2023-02-15T07:53:58;64.40;;;56.27;;
22425;SDS011;11380;50.822;15.790;2023-02-15T07:59:05;75.60;;;61.20;;
22425;SDS011;11380;50.822;15.790;2023-02-15T08:04:14;78.93;;;62.30;;
22425;SDS011;11380;50.822;15.790;2023-02-15T08:09:22;79.85;;;61.02;;
22425;SDS011;11380;50.822;15.790;2023-02-15T08:14:30;70.90;;;61.10;;
22425;SDS011;11380;50.822;15.790;2023-02-15T08:19:37;62.93;;;56.10;;
22425;SDS011;11380;50.822;15.790;2023-02-15T08:24:44;60.53;;;54.27;;
22425;SDS011;11380;50.822;15.790;2023-02-15T08:29:54;62.07;;;55.67;;
22425;SDS011;11380;50.822;15.790;2023-02-15T08:35:01;61.68;;;55.20;;
22425;SDS011;11380;50.822;15.790;2023-02-15T08:40:09;62.40;;;55.70;;
22425;SDS011;11380;50.822;15.790;2023-02-15T08:45:18;72.65;;;59.50;;
22425;SDS011;11380;50.822;15.790;2023-02-15T08:50:25;85.10;;;61.57;;
22425;SDS011;11380;50.822;15.790;2023-02-15T09:05:44;63.50;;;56.83;;
22425;SDS011;11380;50.822;15.790;2023-02-15T09:10:51;70.52;;;58.75;;
22425;SDS011;11380;50.822;15.790;2023-02-15T09:16:00;64.50;;;56.83;;
22425;SDS011;11380;50.822;15.790;2023-02-15T09:21:11;65.13;;;57.83;;
22425;SDS011;11380;50.822;15.790;2023-02-15T09:26:22;65.85;;;58.70;;
22425;SDS011;11380;50.822;15.790;2023-02-15T09:31:32;71.85;;;59.15;;
22425;SDS011;11380;50.822;15.790;2023-02-15T10:04:35;71.63;;;61.27;;
22425;SDS011;11380;50.822;15.790;2023-02-15T10:09:53;65.70;;;58.30;;
22425;SDS011;11380;50.822;15.790;2023-02-15T10:15:24;64.50;;;57.77;;
22425;SDS011;11380;50.822;15.790;2023-02-15T10:26:10;66.73;;;57.50;;
22425;SDS011;11380;50.822;15.790;2023-02-15T10:42:39;69.42;;;60.15;;
22425;SDS011;11380;50.822;15.790;2023-02-15T10:59:29;63.13;;;56.37;;
22425;SDS011;11380;50.822;15.790;2023-02-15T11:04:57;60.53;;;54.43;;
22425;SDS011;11380;50.822;15.790;2023-02-15T11:15:39;63.30;;;56.50;;
22425;SDS011;11380;50.822;15.790;2023-02-15T11:31:38;73.43;;;60.67;;
22425;SDS011;11380;50.822;15.790;2023-02-15T11:36:52;67.90;;;59.90;;
22425;SDS011;11380;50.822;15.790;2023-02-15T11:42:10;66.83;;;59.53;;
22425;SDS011;11380;50.822;15.790;2023-02-15T11:47:24;66.97;;;59.77;;
22425;SDS011;11380;50.822;15.790;2023-02-15T11:52:33;66.63;;;59.33;;
22425;SDS011;11380;50.822;15.790;2023-02-15T11:57:41;66.10;;;58.53;;
22425;SDS011;11380;50.822;15.790;2023-02-15T12:02:52;65.63;;;58.50;;
22425;SDS011;11380;50.822;15.790;2023-02-15T12:08:03;71.23;;;61.07;;
22425;SDS011;11380;50.822;15.790;2023-02-15T12:13:23;72.82;;;62.78;;
22425;SDS011;11380;50.822;15.790;2023-02-15T12:18:36;77.40;;;61.53;;
22425;SDS011;11380;50.822;15.790;2023-02-15T12:23:55;69.07;;;61.47;;
22425;SDS011;11380;50.822;15.790;2023-02-15T12:29:07;70.93;;;63.13;;
22425;SDS011;11380;50.822;15.790;2023-02-15T12:34:27;71.03;;;63.23;;
22425;SDS011;11380;50.822;15.790;2023-02-15T12:39:36;75.60;;;62.83;;
22425;SDS011;11380;50.822;15.790;2023-02-15T12:45:03;69.30;;;61.63;;
22425;SDS011;11380;50.822;15.790;2023-02-15T12:50:23;70.87;;;61.40;;
22425;SDS011;11380;50.822;15.790;2023-02-15T12:55:34;67.80;;;60.33;;
22425;SDS011;11380;50.822;15.790;2023-02-15T13:00:44;70.17;;;60.60;;
22425;SDS011;11380;50.822;15.790;2023-02-15T13:05:53;70.07;;;60.47;;
22425;SDS011;11380;50.822;15.790;2023-02-15T13:11:09;71.00;;;60.83;;
22425;SDS011;11380;50.822;15.790;2023-02-15T13:16:24;66.57;;;59.13;;
22425;SDS011;11380;50.822;15.790;2023-02-15T13:21:36;69.67;;;61.50;;
22425;SDS011;11380;50.822;15.790;2023-02-15T13:26:45;66.47;;;59.43;;
22425;SDS011;11380;50.822;15.790;2023-02-15T13:31:54;67.60;;;60.37;;
22425;SDS011;11380;50.822;15.790;2023-02-15T13:37:19;68.70;;;61.10;;
22425;SDS011;11380;50.822;15.790;2023-02-15T13:42:41;69.90;;;61.23;;
22425;SDS011;11380;50.822;15.790;2023-02-15T13:53:46;68.73;;;61.27;;
22425;SDS011;11380;50.822;15.790;2023-02-15T14:10:09;80.97;;;64.57;;
22425;SDS011;11380;50.822;15.790;2023-02-15T14:15:35;88.72;;;70.95;;
22425;SDS011;11380;50.822;15.790;2023-02-15T14:20:57;74.70;;;64.63;;
22425;SDS011;11380;50.822;15.790;2023-02-15T14:26:31;74.00;;;62.90;;
22425;SDS011;11380;50.822;15.790;2023-02-15T14:31:41;68.23;;;60.33;;
22425;SDS011;11380;50.822;15.790;2023-02-15T14:36:51;74.17;;;63.57;;
22425;SDS011;11380;50.822;15.790;2023-02-15T14:42:00;73.30;;;63.03;;
22425;SDS011;11380;50.822;15.790;2023-02-15T14:47:26;70.73;;;62.93;;
22425;SDS011;11380;50.822;15.790;2023-02-15T14:52:39;78.27;;;64.73;;
22425;SDS011;11380;50.822;15.790;2023-02-15T14:57:57;77.57;;;65.53;;
22425;SDS011;11380;50.822;15.790;2023-02-15T15:03:06;81.97;;;68.33;;
22425;SDS011;11380;50.822;15.790;2023-02-15T15:08:21;90.57;;;66.63;;
22425;SDS011;11380;50.822;15.790;2023-02-15T15:13:36;83.37;;;69.63;;
22425;SDS011;11380;50.822;15.790;2023-02-15T15:18:46;99.47;;;75.23;;
22425;SDS011;11380;50.822;15.790;2023-02-15T15:23:54;85.20;;;68.63;;
22425;SDS011;11380;50.822;15.790;2023-02-15T15:29:03;76.80;;;66.50;;
22425;SDS011;11380;50.822;15.790;2023-02-15T15:34:19;96.83;;;73.70;;
22425;SDS011;11380;50.822;15.790;2023-02-15T15:39:57;81.63;;;67.73;;
22425;SDS011;11380;50.822;15.790;2023-02-15T15:45:34;88.43;;;72.07;;
22425;SDS011;11380;50.822;15.790;2023-02-15T15:56:28;82.00;;;67.80;;
22425;SDS011;11380;50.822;15.790;2023-02-15T16:01:42;78.97;;;65.97;;
22425;SDS011;11380;50.822;15.790;2023-02-15T16:06:52;76.70;;;65.20;;
22425;SDS011;11380;50.822;15.790;2023-02-15T16:12:00;70.37;;;61.33;;
22425;SDS011;11380;50.822;15.790;2023-02-15T16:17:20;67.77;;;59.83;;
22425;SDS011;11380;50.822;15.790;2023-02-15T16:22:29;69.60;;;61.37;;
22425;SDS011;11380;50.822;15.790;2023-02-15T16:27:37;67.37;;;60.07;;
22425;SDS011;11380;50.822;15.790;2023-02-15T16:32:46;65.27;;;58.17;;
22425;SDS011;11380;50.822;15.790;2023-02-15T16:37:54;65.33;;;58.23;;
22425;SDS011;11380;50.822;15.790;2023-02-15T16:43:01;74.30;;;63.90;;
22425;SDS011;11380;50.822;15.790;2023-02-15T16:48:18;73.13;;;62.13;;
22425;SDS011;11380;50.822;15.790;2023-02-15T16:53:29;124.62;;;80.15;;
22425;SDS011;11380;50.822;15.790;2023-02-15T16:58:40;123.53;;;77.67;;
22425;SDS011;11380;50.822;15.790;2023-02-15T17:03:51;102.47;;;73.13;;
22425;SDS011;11380;50.822;15.790;2023-02-15T17:09:03;73.73;;;61.67;;
22425;SDS011;11380;50.822;15.790;2023-02-15T17:14:19;98.87;;;69.43;;
22425;SDS011;11380;50.822;15.790;2023-02-15T17:19:50;93.47;;;66.03;;
22425;SDS011;11380;50.822;15.790;2023-02-15T17:25:00;88.73;;;67.57;;
22425;SDS011;11380;50.822;15.790;2023-02-15T17:30:13;61.80;;;55.47;;
22425;SDS011;11380;50.822;15.790;2023-02-15T17:35:39;71.77;;;58.70;;
22425;SDS011;11380;50.822;15.790;2023-02-15T17:40:47;68.37;;;57.83;;
22425;SDS011;11380;50.822;15.790;2023-02-15T17:45:54;66.62;;;57.70;;
22425;SDS011;11380;50.822;15.790;2023-02-15T17:51:24;73.52;;;60.45;;
22425;SDS011;11380;50.822;15.790;2023-02-15T17:56:31;67.37;;;57.90;;
22425;SDS011;11380;50.822;15.790;2023-02-15T18:01:44;76.97;;;60.40;;
22425;SDS011;11380;50.822;15.790;2023-02-15T18:07:11;72.23;;;60.27;;
22425;SDS011;11380;50.822;15.790;2023-02-15T18:12:36;68.57;;;61.07;;
22425;SDS011;11380;50.822;15.790;2023-02-15T18:17:44;71.30;;;59.40;;
22425;SDS011;11380;50.822;15.790;2023-02-15T18:22:52;74.33;;;60.07;;
22425;SDS011;11380;50.822;15.790;2023-02-15T18:33:09;107.43;;;80.63;;
22425;SDS011;11380;50.822;15.790;2023-02-15T18:38:34;127.00;;;87.53;;
22425;SDS011;11380;50.822;15.790;2023-02-15T18:43:42;119.77;;;81.03;;
22425;SDS011;11380;50.822;15.790;2023-02-15T18:48:52;136.50;;;85.63;;
22425;SDS011;11380;50.822;15.790;2023-02-15T18:53:58;86.20;;;68.07;;
22425;SDS011;11380;50.822;15.790;2023-02-15T18:59:15;101.07;;;72.20;;
22425;SDS011;11380;50.822;15.790;2023-02-15T19:04:21;114.52;;;81.70;;
22425;SDS011;11380;50.822;15.790;2023-02-15T19:09:30;123.05;;;82.05;;
22425;SDS011;11380;50.822;15.790;2023-02-15T19:14:38;77.13;;;62.80;;
22425;SDS011;11380;50.822;15.790;2023-02-15T19:19:46;82.50;;;66.87;;
22425;SDS011;11380;50.822;15.790;2023-02-15T19:24:57;94.43;;;69.63;;
22425;SDS011;11380;50.822;15.790;2023-02-15T19:30:17;100.45;;;71.82;;
22425;SDS011;11380;50.822;15.790;2023-02-15T19:35:29;89.00;;;66.30;;
22425;SDS011;11380;50.822;15.790;2023-02-15T19:40:40;80.87;;;65.83;;
22425;SDS011;11380;50.822;15.790;2023-02-15T19:50:55;92.40;;;70.27;;
22425;SDS011;11380;50.822;15.790;2023-02-15T19:56:03;85.70;;;65.63;;
22425;SDS011;11380;50.822;15.790;2023-02-15T20:01:12;86.00;;;68.97;;
22425;SDS011;11380;50.822;15.790;2023-02-15T20:06:21;112.20;;;72.90;;
22425;SDS011;11380;50.822;15.790;2023-02-15T20:11:29;241.78;;;105.97;;
22425;SDS011;11380;50.822;15.790;2023-02-15T20:16:36;146.63;;;88.23;;
22425;SDS011;11380;50.822;15.790;2023-02-15T20:21:45;118.63;;;77.60;;
22425;SDS011;11380;50.822;15.790;2023-02-15T20:26:57;93.87;;;70.77;;
22425;SDS011;11380;50.822;15.790;2023-02-15T20:32:04;92.10;;;69.80;;
22425;SDS011;11380;50.822;15.790;2023-02-15T20:37:22;98.67;;;71.43;;
22425;SDS011;11380;50.822;15.790;2023-02-15T20:42:30;96.60;;;69.53;;
22425;SDS011;11380;50.822;15.790;2023-02-15T20:47:37;103.67;;;71.97;;
22425;SDS011;11380;50.822;15.790;2023-02-15T20:52:46;109.93;;;74.97;;
22425;SDS011;11380;50.822;15.790;2023-02-15T20:57:57;105.83;;;77.00;;
22425;SDS011;11380;50.822;15.790;2023-02-15T21:03:06;106.77;;;72.30;;
22425;SDS011;11380;50.822;15.790;2023-02-15T21:08:17;104.12;;;71.35;;
22425;SDS011;11380;50.822;15.790;2023-02-15T21:13:28;113.87;;;76.60;;
22425;SDS011;11380;50.822;15.790;2023-02-15T21:18:40;164.73;;;91.50;;
22425;SDS011;11380;50.822;15.790;2023-02-15T21:23:49;118.23;;;78.47;;
22425;SDS011;11380;50.822;15.790;2023-02-15T21:28:58;90.87;;;66.47;;
22425;SDS011;11380;50.822;15.790;2023-02-15T21:34:06;93.17;;;66.63;;
22425;SDS011;11380;50.822;15.790;2023-02-15T21:39:16;111.67;;;72.40;;
22425;SDS011;11380;50.822;15.790;2023-02-15T21:44:30;159.85;;;90.57;;
22425;SDS011;11380;50.822;15.790;2023-02-15T21:49:54;222.87;;;110.43;;
22425;SDS011;11380;50.822;15.790;2023-02-15T21:55:04;125.03;;;77.80;;
22425;SDS011;11380;50.822;15.790;2023-02-15T22:00:16;112.73;;;75.97;;
22425;SDS011;11380;50.822;15.790;2023-02-15T22:05:27;95.77;;;68.90;;
22425;SDS011;11380;50.822;15.790;2023-02-15T22:10:38;99.77;;;66.93;;
22425;SDS011;11380;50.822;15.790;2023-02-15T22:15:46;93.00;;;63.20;;
22425;SDS011;11380;50.822;15.790;2023-02-15T22:20:54;69.65;;;56.53;;
22425;SDS011;11380;50.822;15.790;2023-02-15T22:26:10;77.43;;;60.40;;
22425;SDS011;11380;50.822;15.790;2023-02-15T22:31:26;67.45;;;57.85;;
22425;SDS011;11380;50.822;15.790;2023-02-15T22:36:35;73.00;;;57.87;;
22425;SDS011;11380;50.822;15.790;2023-02-15T22:41:42;57.13;;;51.30;;
22425;SDS011;11380;50.822;15.790;2023-02-15T22:46:52;84.37;;;60.47;;
22425;SDS011;11380;50.822;15.790;2023-02-15T22:52:00;76.97;;;58.60;;
22425;SDS011;11380;50.822;15.790;2023-02-15T22:57:15;60.37;;;53.80;;
22425;SDS011;11380;50.822;15.790;2023-02-15T23:02:24;104.77;;;71.80;;
22425;SDS011;11380;50.822;15.790;2023-02-15T23:07:31;89.03;;;61.53;;
22425;SDS011;11380;50.822;15.790;2023-02-15T23:12:38;64.27;;;53.95;;
22425;SDS011;11380;50.822;15.790;2023-02-15T23:23:39;68.27;;;54.30;;
22425;SDS011;11380;50.822;15.790;2023-02-15T23:28:50;72.20;;;58.03;;
22425;SDS011;11380;50.822;15.790;2023-02-15T23:33:59;78.37;;;59.53;;
22425;SDS011;11380;50.822;15.790;2023-02-15T23:39:12;86.17;;;61.13;;
22425;SDS011;11380;50.822;15.790;2023-02-15T23:44:40;89.97;;;62.57;;
22425;SDS011;11380;50.822;15.790;2023-02-15T23:49:49;94.40;;;65.80;;
22425;SDS011;11380;50.822;15.790;2023-02-15T23:54:57;76.00;;;58.10;;
